Home > Products > Valid Products > TAF

000
FTUS44 KLIX 312300
TAFMCB
TAF
KMCB 312328Z 0100/0124 35011KT P6SM SCT050
     FM010400 36009KT P6SM SKC=



000
FTUS44 KLIX 312300
TAFNEW
TAF
KNEW 312328Z 0100/0124 34025G35KT P6SM FEW045
     FM011400 01019KT P6SM SKC
     FM011800 35013KT P6SM SKC=



000
FTUS44 KLIX 312300
TAFMSY
TAF
KMSY 312328Z 0100/0124 34016G22KT P6SM FEW040
     FM010300 35023G32KT P6SM FEW045
     FM011100 01018KT P6SM SKC
     FM011700 36010KT P6SM SKC=



000
FTUS44 KLIX 312300
TAFBTR
TAF
KBTR 312328Z 0100/0124 34011KT P6SM FEW050
     FM010400 36008KT P6SM SKC
     FM011000 36008KT P6SM SKC=



000
FTUS44 KLIX 312300
TAFGPT
TAF
KGPT 312328Z 0100/0124 34015KT P6SM SCT050
     FM010500 35013KT P6SM SKC
     FM011400 34013G19KT P6SM SKC=



000
FTUS44 KLIX 311700
TAFMSY
TAF
KMSY 311737Z 3118/0118 33014G21KT P6SM SKC
     FM010100 35021G30KT P6SM SKC
     FM011300 02015KT P6SM SKC=



000
FTUS44 KLIX 311700
TAFGPT
TAF
KGPT 311737Z 3118/0118 31011G18KT P6SM FEW050
     FM010200 35014KT P6SM SKC=



000
FTUS44 KLIX 311700
TAFNEW
TAF
KNEW 311737Z 3118/0118 31013KT P6SM SKC
     FM312100 32020G28KT P6SM SKC
     FM010200 35026G36KT P6SM SKC
     FM011400 02020KT P6SM SKC=



000
FTUS44 KLIX 311700
TAFBTR
TAF
KBTR 311737Z 3118/0118 33010G17KT P6SM SKC
     FM312300 35006KT P6SM SKC=



000
FTUS44 KLIX 311700
TAFMCB
TAF
KMCB 311737Z 3118/0118 34015G22KT P6SM FEW050
     FM010000 35011KT P6SM SKC=



000
FTUS44 KLIX 311100 RRA
TAFMCB
TAF
KMCB 311142Z 3112/0112 VRB03KT P6SM SKC
     FM311400 31007KT P6SM SKC
     FM311700 33011KT P6SM SKC
     FM312000 35015G22KT P6SM SKC
     FM010200 35008KT P6SM SKC=



000
FTUS44 KLIX 311100 RRA
TAFMSY
TAF
KMSY 311142Z 3112/0112 36006KT P6SM SKC
     FM311600 33011KT P6SM SKC
     FM312100 35014G23KT P6SM SKC
     FM010100 35019G29KT P6SM SKC=



000
FTUS44 KLIX 311100 RRA
TAFNEW
TAF
KNEW 311142Z 3112/0112 01009KT P6SM SKC
     FM311500 33013KT P6SM FEW250
     FM312100 36015G24KT P6SM SKC
     FM010100 34022G34KT P6SM SKC=



000
FTUS44 KLIX 311100 RRA
TAFBTR
TAF
KBTR 311142Z 3112/0112 VRB03KT P6SM FEW250
     FM311400 31007KT P6SM SKC
     FM311700 33011KT P6SM SKC
     FM312000 35016G23KT P6SM SKC
     FM010500 01009KT P6SM FEW250=



000
FTUS44 KLIX 311100 RRA
TAFGPT
TAF
KGPT 311142Z 3112/0112 35006KT P6SM FEW250
     FM311800 31011KT P6SM SKC
     FM312100 35014G22KT P6SM SKC
     FM010000 35013KT P6SM FEW250=



000
FTUS44 KLIX 310500
TAFMSY
TAF
KMSY 310520Z 3106/0106 36006KT P6SM SKC
     FM311600 33011KT P6SM FEW250
     FM010100 35015G24KT P6SM SKC=



000
FTUS44 KLIX 310500
TAFNEW
TAF
KNEW 310520Z 3106/0106 01009KT P6SM SKC
     FM311500 33013KT P6SM FEW250
     FM010000 34019G30KT P6SM SKC=



000
FTUS44 KLIX 310500
TAFMCB
TAF
KMCB 310520Z 3106/0106 VRB03KT P6SM FEW250
     FM311400 31007KT P6SM SKC
     FM311700 33011KT P6SM FEW250=



000
FTUS44 KLIX 310500
TAFBTR
TAF
KBTR 310520Z 3106/0106 VRB03KT P6SM FEW250
     FM311400 31007KT P6SM SKC
     FM311700 33011KT P6SM SKC
     FM010500 01009KT P6SM FEW250=



000
FTUS44 KLIX 310500
TAFGPT
TAF
KGPT 310520Z 3106/0106 35006KT P6SM FEW250
     FM311700 31011KT P6SM SKC
     FM010000 35013KT P6SM FEW250=



000
FTUS44 KLIX 302300
TAFNEW
TAF
KNEW 302320Z 3100/3124 36009KT P6SM SKC
     FM311700 32015KT P6SM SKC=



000
FTUS44 KLIX 302300
TAFBTR
TAF
KBTR 302320Z 3100/3124 01004KT P6SM SKC
     FM311400 32008KT P6SM SKC
     FM311800 33012KT P6SM SKC=



000
FTUS44 KLIX 302300
TAFMCB
TAF
KMCB 302320Z 3100/3124 36004KT P6SM SKC
     FM311400 32008KT P6SM SKC
     FM311800 33012KT P6SM SKC=



000
FTUS44 KLIX 302300
TAFGPT
TAF
KGPT 302320Z 3100/3124 36006KT P6SM SKC
     FM311700 31012KT P6SM SKC=



000
FTUS44 KLIX 302300
TAFMSY
TAF
KMSY 302320Z 3100/3124 35007KT P6SM SKC
     FM311600 33012KT P6SM SKC=



000
FTUS44 KLIX 301800 RRA
TAFMCB
TAF
KMCB 301814Z 3018/3118 03005KT P6SM SKC
     FM311200 32008KT P6SM SKC=



000
FTUS44 KLIX 301800 RRA
TAFBTR
TAF
KBTR 301814Z 3018/3118 05005KT P6SM SKC
     FM311200 32008KT P6SM SKC=



000
FTUS44 KLIX 301800 RRA
TAFGPT
TAF
KGPT 301814Z 3018/3118 03010KT P6SM SKC
     FM310300 36006KT P6SM SKC
     FM311700 31010KT P6SM SKC=



000
FTUS44 KLIX 301800 RRA
TAFMSY
TAF
KMSY 301814Z 3018/3118 03011KT P6SM SKC
     FM310000 01007KT P6SM SKC
     FM311600 33011KT P6SM SKC=



000
FTUS44 KLIX 301800 RRA
TAFNEW
TAF
KNEW 301814Z 3018/3118 03013KT P6SM SKC
     FM310000 36009KT P6SM SKC
     FM311700 32012KT P6SM SKC=



000
FTUS44 KLIX 301700
TAFMCB
TAF
KMCB 301720Z 3018/3118 05005KT P6SM SKC
     FM311200 32008KT P6SM SKC=



000
FTUS44 KLIX 301700
TAFBTR
TAF
KBTR 301720Z 3018/3118 05005KT P6SM SKC
     FM311200 31008KT P6SM SKC=



000
FTUS44 KLIX 301700
TAFGPT
TAF
KGPT 301720Z 3018/3118 03010KT P6SM SKC
     FM310300 36006KT P6SM SKC
     FM311700 31010KT P6SM SKC=



000
FTUS44 KLIX 301700
TAFMSY
TAF
KMSY 301720Z 3018/3118 03011KT P6SM SKC
     FM310000 01007KT P6SM SKC
     FM311600 33011KT P6SM SKC=



000
FTUS44 KLIX 301700
TAFNEW
TAF
KNEW 301720Z 3018/3118 05013KT P6SM SKC
     FM310000 36009KT P6SM SKC
     FM311700 32012KT P6SM SKC=



000
FTUS44 KLIX 301400 AAA
TAFMSY
TAF AMD
KMSY 301420Z 3014/3112 03015G25KT P6SM SCT250
     FM302200 01006KT P6SM SKC=



000
FTUS44 KLIX 301200 CCA
TAFBTR
TAF COR
KBTR 301201Z 3012/3112 04005KT P6SM SKC=



000
FTUS44 KLIX 301200 CCA
TAFMCB
TAF COR
KMCB 301201Z 3012/3112 03005KT P6SM SKC=



000
FTUS44 KLIX 301200 CCA
TAFMSY
TAF COR
KMSY 301201Z 3012/3112 03010KT P6SM SCT250
     FM302200 01006KT P6SM SKC=



000
FTUS44 KLIX 301200 CCA
TAFGPT
TAF COR
KGPT 301201Z 3012/3112 02009KT P6SM FEW250
     FM310200 01004KT P6SM SKC=



000
FTUS44 KLIX 301200 CCA
TAFNEW
TAF COR
KNEW 301201Z 3012/3112 03013KT P6SM SCT250
     FM301800 04009KT P6SM SKC
     FM302300 36005KT P6SM SKC
     FM310300 36009KT P6SM FEW250=



000
FTUS44 KLIX 300500
TAFNEW
TAF
KNEW 300520Z 3006/3106 03015KT P6SM BKN035
     FM300900 03015KT P6SM SKC
     FM301800 04009KT P6SM SKC=



000
FTUS44 KLIX 300500
TAFMCB
TAF
KMCB 300520Z 3006/3106 02005KT P6SM SKC=



000
FTUS44 KLIX 300500
TAFBTR
TAF
KBTR 300520Z 3006/3106 03005KT P6SM SCT060
     FM300900 03006KT P6SM SKC=



000
FTUS44 KLIX 300500
TAFMSY
TAF
KMSY 300520Z 3006/3106 03013KT P6SM BKN040
     FM300900 03011KT P6SM SKC
     FM302100 03006KT P6SM SKC=



000
FTUS44 KLIX 300500
TAFGPT
TAF
KGPT 300520Z 3006/3106 02010KT P6SM SCT035
     FM300900 02010KT P6SM SKC
     FM310100 36006KT P6SM SKC=



000
FTUS44 KLIX 292300
TAFMSY
TAF
KMSY 292334Z 3000/3024 36009KT P6SM SCT030 BKN080
      TEMPO 3000/3002 BKN030
     FM300500 03009KT P6SM SCT035
     FM300700 03011KT P6SM SKC
     FM302100 03007KT P6SM SKC=



000
FTUS44 KLIX 292300
TAFMCB
TAF
KMCB 292334Z 3000/3024 36005KT P6SM FEW045
     FM300200 01006KT P6SM SKC=



000
FTUS44 KLIX 292300
TAFNEW
TAF
KNEW 292334Z 3000/3024 36012KT P6SM SCT030 BKN070
      TEMPO 3000/3002 BKN030
     FM300600 03015KT P6SM SKC
     FM301900 04009KT P6SM SKC=



000
FTUS44 KLIX 292300
TAFBTR
TAF
KBTR 292334Z 3000/3024 36005KT P6SM BKN030
     FM300200 01006KT P6SM SKC
     FM300600 03006KT P6SM SKC=



000
FTUS44 KLIX 292300
TAFGPT
TAF
KGPT 292334Z 3000/3024 36006KT P6SM SCT030 BKN080
      TEMPO 3000/3002 BKN030
     FM300500 01009KT P6SM SKC=



000
FTUS44 KLIX 291900 AAA
TAFBTR
TAF AMD
KBTR 291952Z 2920/3018 33005KT P6SM VCSH SCT025
     FM300000 01005KT P6SM BKN035
     FM300600 03006KT P6SM SCT250=



000
FTUS44 KLIX 291700
TAFNEW
TAF
KNEW 291722Z 2918/3018 32005KT 4SM HZ SCT010
     FM292000 33006KT 6SM HZ BKN030
     FM300100 01009KT P6SM BKN035
     FM300700 03013G23KT P6SM SCT250=



000
FTUS44 KLIX 291700
TAFMSY
TAF
KMSY 291722Z 2918/3018 32005KT P6SM SCT030
     FM292300 36007KT P6SM BKN030
     FM300100 01007KT P6SM BKN035
     FM300700 03010G20KT P6SM SCT250=



000
FTUS44 KLIX 291700
TAFGPT
TAF
KGPT 291722Z 2918/3018 VRB03KT P6SM SCT030
     FM292300 34007KT P6SM BKN030
     FM300100 35007KT P6SM BKN035
     FM300600 02010KT P6SM SCT040=



000
FTUS44 KLIX 291700
TAFMCB
TAF
KMCB 291722Z 2918/3018 34006KT P6SM SCT020
      TEMPO 2918/2920 BKN020
     FM292000 35006KT P6SM OVC030
     FM292100 35006KT P6SM BKN040
     FM300600 03005KT P6SM FEW250=



000
FTUS44 KLIX 291700
TAFBTR
TAF
KBTR 291722Z 2918/3018 33005KT P6SM SCT025
     FM300000 01005KT P6SM BKN035
     FM300600 03006KT P6SM SCT250=



000
FTUS44 KLIX 291500 AAC
TAFBTR
TAF AMD
KBTR 291517Z 2915/3012 00000KT P6SM BKN010
     FM291700 32004KT P6SM BKN030
     FM292000 34005KT P6SM BKN035
     FM300600 03006KT P6SM SCT250=



000
FTUS44 KLIX 291500 AAC
TAFMCB
TAF AMD
KMCB 291506Z 2915/3012 VRB03KT P6SM OVC005
     FM291600 33004KT P6SM OVC015
     FM292000 35006KT P6SM OVC030
     FM292100 35006KT P6SM BKN040
     FM300600 03005KT P6SM FEW250=



000
FTUS44 KLIX 291500 AAC
TAFNEW
TAF AMD
KNEW 291506Z 2915/3012 34005KT P6SM BKN008
      TEMPO 2915/2916 3SM BR OVC003
     FM291700 32005KT P6SM BKN040
     FM300000 36009KT P6SM BKN035
     FM300600 03011KT P6SM SCT060=



000
FTUS44 KLIX 291400 AAB
TAFNEW
TAF AMD
KNEW 291401Z 2914/3012 33005KT P6SM BKN020
      TEMPO 2914/2915 3SM BR OVC003
     FM291600 33005KT P6SM BKN040
     FM300000 36009KT P6SM BKN035
     FM300600 03011KT P6SM SCT060=



000
FTUS44 KLIX 291400 AAB
TAFMCB
TAF AMD
KMCB 291400Z 2914/3012 VRB03KT 4SM BR OVC004
     FM291500 35006KT P6SM OVC030
     FM292100 35006KT P6SM BKN040
     FM300600 03005KT P6SM FEW250=



000
FTUS44 KLIX 291400 AAB
TAFBTR
TAF AMD
KBTR 291400Z 2914/3012 00000KT 2SM BR OVC002
     FM291500 VRB03KT P6SM BKN030
     FM292000 34005KT P6SM BKN035
     FM300600 03006KT P6SM SCT250=



000
FTUS44 KLIX 291300 AAA
TAFMSY
TAF AMD
KMSY 291325Z 2913/3012 VRB03KT P6SM SCT015
     FM291400 33004KT P6SM BKN020
     FM291600 34004KT P6SM BKN040
     FM300400 02008KT P6SM BKN050
     FM300600 03010KT P6SM SCT060=



000
FTUS44 KLIX 291300 AAA
TAFNEW
TAF AMD
KNEW 291325Z 2913/3012 31004KT 4SM BR BKN008
     FM291400 33005KT P6SM BKN020
     FM291600 33005KT P6SM BKN040
     FM300000 36009KT P6SM BKN035
     FM300600 03011KT P6SM SCT060=



000
FTUS44 KLIX 291300 AAA
TAFBTR
TAF AMD
KBTR 291325Z 2913/3012 00000KT 1/4SM FG OVC003
     FM291400 00000KT P6SM OVC015
     FM291600 VRB03KT P6SM BKN030
     FM292000 34005KT P6SM BKN035
     FM300600 03006KT P6SM SCT250=



000
FTUS44 KLIX 291300 AAA
TAFMCB
TAF AMD
KMCB 291325Z 2913/3012 VRB03KT 1/4SM FG OVC003
     FM291400 VRB03KT P6SM OVC015
     FM292000 35006KT P6SM OVC030
     FM292100 35006KT P6SM BKN040
     FM300600 03005KT P6SM FEW250=



000
FTUS44 KLIX 291300 AAA
TAFGPT
TAF AMD
KGPT 291325Z 2913/3012 VRB03KT 3SM BR BKN003
     FM291400 00000KT P6SM BKN015
     FM291600 00000KT P6SM BKN040
     FM292100 33006KT P6SM BKN035
     FM300600 02010KT P6SM SCT250=



000
FTUS44 KLIX 291100
TAFBTR
TAF
KBTR 291137Z 2912/3012 VRB03KT P6SM FEW004
      TEMPO 2912/2913 4SM BR BKN004
     FM291500 30004KT P6SM BKN030
     FM291800 32005KT P6SM VCTS BKN035CB
     FM300000 01005KT P6SM BKN025=



000
FTUS44 KLIX 291100
TAFNEW
TAF
KNEW 291137Z 2912/3012 VRB04KT 3SM BR BKN020
     FM291500 32004KT P6SM BKN030
     FM291800 32005KT P6SM VCTS BKN035CB
     FM300000 01006KT P6SM BKN035
     FM300500 03010KT P6SM BKN040=



000
FTUS44 KLIX 291100
TAFMCB
TAF
KMCB 291137Z 2912/3012 16004KT 2SM BR BKN010
      TEMPO 2912/2914 1/4SM FG VV002
     FM291500 30005KT P6SM VCTS BKN035CB
     FM300000 01006KT P6SM BKN040=



000
FTUS44 KLIX 291100
TAFMSY
TAF
KMSY 291137Z 2912/3012 VRB03KT P6SM BKN002 BKN015
      TEMPO 2912/2914 1/4SM FG VV001
     FM291500 32004KT P6SM BKN030
     FM291800 33005KT P6SM VCTS BKN035CB
     FM300000 01006KT P6SM BKN040=



000
FTUS44 KLIX 291100
TAFGPT
TAF
KGPT 291137Z 2912/3012 25004KT P6SM SCT015
      TEMPO 2912/2914 5SM BR BKN005
     FM291500 31004KT P6SM BKN030
     FM291800 30004KT P6SM VCTS BKN035CB
     FM300000 35005KT P6SM BKN035=



000
FTUS44 KLIX 290500
TAFNEW
TAF
KNEW 290520Z 2906/3006 17008KT P6SM SCT030
     FM290900 22004KT P6SM BKN020
     FM291500 32004KT P6SM BKN030
     FM291800 32005KT P6SM VCTS BKN035CB
     FM300000 01006KT P6SM BKN035
     FM300500 03010KT P6SM BKN040=



000
FTUS44 KLIX 290500
TAFMSY
TAF
KMSY 290520Z 2906/3006 16006KT P6SM SCT040
     FM290900 VRB03KT P6SM BKN015
     FM291500 32004KT P6SM BKN030
     FM291800 33005KT P6SM VCTS BKN035CB
     FM300000 01006KT P6SM BKN040=



000
FTUS44 KLIX 290500
TAFGPT
TAF
KGPT 290520Z 2906/3006 16005KT P6SM SCT015
     FM290900 25004KT P6SM BKN015
      TEMPO 2909/2913 5SM BR
     FM291500 31004KT P6SM BKN030
     FM291800 30004KT P6SM VCTS BKN035CB
     FM300000 35005KT P6SM BKN035=



000
FTUS44 KLIX 290500
TAFBTR
TAF
KBTR 290520Z 2906/3006 VRB03KT P6SM SCT035 BKN110
     FM290800 VRB03KT P6SM BKN025
     FM291000 VRB03KT P6SM BKN010
      TEMPO 2910/2913 5SM BR
     FM291500 30004KT P6SM BKN030
     FM291800 32005KT P6SM VCTS BKN035CB
     FM300000 01005KT P6SM BKN025=



000
FTUS44 KLIX 290500
TAFMCB
TAF
KMCB 290520Z 2906/3006 16005KT P6SM SCT045 BKN080
     FM290900 16004KT P6SM BKN010
      TEMPO 2909/2913 3SM BR
     FM291500 30005KT P6SM VCTS BKN035CB
     FM300000 01006KT P6SM BKN040=



    US Dept of Commerce
    National Oceanic and Atmospheric Administration
    National Weather Service
    1325 East West Highway
    Silver Spring, MD 20910
    Page Author: NWS Internet Services Team
Disclaimer
Information Quality
Credits
Glossary
Privacy Policy
Freedom of Information Act (FOIA)
About Us
Career Opportunities